Time;durP1;ratioP1;P1;durP2;ratioP2;P2;SDS_P1;SDS_P2;PMS_P1;PMS_P2;Temp;Humidity;BMP_temperature;BMP_pressure;BME280_temperature;BME280_humidity;BME280_pressure;Samples;Min_cycle;Max_cycle;Signal;HPM_P1;HPM_P2
2022/10/14 00:01:09;;;;;;;;;;;;;;;11.48;100.00;100935.63;5030847;28;20033;-86
2022/10/14 00:03:37;;;;;;;124.93;55.75;;;;;;;11.33;100.00;100911.38;5011843;28;20155;-85
2022/10/14 00:06:24;;;;;;;127.65;58.50;;;;;;;11.49;100.00;100933.78;5024961;28;20026;-84
2022/10/14 00:08:49;;;;;;;156.52;62.85;;;;;;;11.52;100.00;100938.78;5043658;28;20041;-85
2022/10/14 00:11:19;;;;;;;141.98;60.35;;;;;;;11.45;100.00;100922.59;5011693;28;20508;-83
2022/10/14 00:13:46;;;;;;;143.95;57.92;;;;;;;11.46;100.00;100923.41;5011339;28;20037;-84
2022/10/14 00:16:24;;;;;;;148.65;62.53;;;;;;;11.46;100.00;100924.25;5010341;28;20084;-85
2022/10/14 00:18:50;;;;;;;154.65;58.75;;;;;;;11.43;100.00;100926.44;5011230;28;20043;-84
2022/10/14 00:21:16;;;;;;;144.43;62.17;;;;;;;11.41;100.00;100924.75;5011420;28;20104;-84
2022/10/14 00:23:42;;;;;;;132.10;59.83;;;;;;;11.42;100.00;100920.22;5029070;28;20025;-85
2022/10/14 00:26:25;;;;;;;144.63;60.17;;;;;;;11.42;100.00;100922.91;5010680;28;20040;-84
2022/10/14 00:28:51;;;;;;;159.02;62.42;;;;;;;11.40;100.00;100928.44;5027755;28;20061;-84
2022/10/14 00:31:17;;;;;;;142.27;59.00;;;;;;;11.35;100.00;100925.38;5020119;28;20036;-85
2022/10/14 00:33:45;;;;;;;147.38;58.53;;;;;;;11.36;100.00;100932.41;5014961;28;20029;-83
2022/10/14 00:36:13;;;;;;;125.33;56.00;;;;;;;11.44;100.00;100928.09;5038287;28;20446;-85
2022/10/14 00:38:39;;;;;;;135.57;58.83;;;;;;;11.43;100.00;100934.44;5010473;28;20092;-84
2022/10/14 00:41:05;;;;;;;130.90;57.55;;;;;;;11.39;100.00;100933.94;5026734;28;20837;-86
2022/10/14 00:43:53;;;;;;;125.97;51.90;;;;;;;11.41;100.00;100935.44;5015580;28;20033;-86
2022/10/14 00:46:18;;;;;;;117.47;51.63;;;;;;;11.38;100.00;100929.59;5025737;28;20031;-85
2022/10/14 00:48:44;;;;;;;120.28;52.22;;;;;;;11.32;100.00;100907.00;5031250;28;20029;-84
2022/10/14 00:51:09;;;;;;;115.05;49.63;;;;;;;11.34;100.00;100915.69;5031587;28;20118;-84
2022/10/14 00:53:37;;;;;;;129.30;53.20;;;;;;;11.33;100.00;100911.38;5014558;28;20040;-84
2022/10/14 00:56:04;;;;;;;115.40;49.58;;;;;;;11.35;100.00;100920.03;4997722;28;20075;-84
2022/10/14 00:58:29;;;;;;;130.45;54.17;;;;;;;11.30;100.00;100909.00;5023037;28;20087;-84
2022/10/14 01:00:55;;;;;;;128.10;52.37;;;;;;;11.25;100.00;100911.34;5031018;28;20607;-84
2022/10/14 01:03:22;;;;;;;117.82;51.00;;;;;;;11.30;100.00;100911.69;5003825;28;20013;-81
2022/10/14 01:06:12;;;;;;;131.20;53.72;;;;;;;11.28;100.00;100908.31;5030431;28;20215;-81
2022/10/14 01:09:05;;;;;;;107.05;46.13;;;;;;;11.18;100.00;100896.94;5017779;28;20184;-84
2022/10/14 01:11:37;;;;;;;162.07;56.50;;;;;;;11.17;100.00;100892.63;5030839;28;20029;-83
2022/10/14 01:14:25;;;;;;;120.30;51.00;;;;;;;11.11;100.00;100895.94;5035607;28;20172;-86
2022/10/14 01:17:01;;;;;;;129.20;51.20;;;;;;;11.15;100.00;100894.63;5013043;28;20038;-83
2022/10/14 01:19:47;;;;;;;122.93;52.97;;;;;;;11.14;100.00;100892.94;5030636;28;20033;-86
2022/10/14 01:22:12;;;;;;;;;;;;;;;11.16;100.00;100893.59;5014599;28;20501;-85
2022/10/14 01:27:48;;;;;;;136.73;52.17;;;;;;;11.10;100.00;100899.63;5034704;28;19921;-73
2022/10/14 01:30:28;;;;;;;112.85;48.75;;;;;;;11.08;100.00;100901.59;5037202;28;20032;-72
2022/10/14 01:33:12;;;;;;;120.00;47.75;;;;;;;11.05;100.00;100896.56;5023535;28;20029;-73
2022/10/14 01:35:50;;;;;;;98.10;45.88;;;;;;;11.03;100.00;100898.56;5049362;28;20037;-73
2022/10/14 01:38:24;;;;;;;114.95;49.22;;;;;;;11.03;100.00;100902.09;5052588;28;20039;-72
2022/10/14 01:41:00;;;;;;;140.73;50.67;;;;;;;11.04;100.00;100894.91;5051589;28;20068;-74
2022/10/14 01:43:29;;;;;;;117.05;48.67;;;;;;;11.06;100.00;100900.94;5062999;28;20478;-73
2022/10/14 01:45:56;;;;;;;102.38;45.15;;;;;;;11.04;100.00;100894.91;5023452;28;20024;-73
2022/10/14 01:48:28;;;;;;;125.63;50.08;;;;;;;11.05;100.00;100901.91;5035097;28;20050;-72
2022/10/14 01:50:58;;;;;;;122.35;51.97;;;;;;;11.09;100.00;100898.75;5038788;28;20398;-72
2022/10/14 01:53:28;;;;;;;114.97;48.22;;;;;;;11.08;100.00;100901.59;5048649;28;20064;-73
2022/10/14 01:55:56;;;;;;;129.93;53.22;;;;;;;11.08;100.00;100904.28;5038792;28;20028;-72
2022/10/14 01:58:25;;;;;;;131.43;51.15;;;;;;;11.07;100.00;100905.25;5035295;28;20036;-73
2022/10/14 02:00:50;;;;;;;136.98;51.58;;;;;;;11.03;100.00;100898.56;5054910;28;20478;-72
2022/10/14 02:03:16;;;;;;;124.70;50.20;;;;;;;10.99;100.00;100903.41;5052066;28;20028;-73
2022/10/14 02:06:02;;;;;;;144.97;55.63;;;;;;;10.99;100.00;100904.25;5037385;28;20037;-73
2022/10/14 02:08:40;;;;;;;144.70;54.90;;;;;;;10.95;100.00;100908.22;5048838;28;20322;-73
2022/10/14 02:11:15;;;;;;;143.45;55.88;;;;;;;10.90;100.00;100896.34;5056211;28;20115;-73
2022/10/14 02:13:59;;;;;;;150.65;58.78;;;;;;;10.91;100.00;100901.53;5051822;28;20033;-73
2022/10/14 02:16:35;;;;;;;155.20;59.50;;;;;;;10.88;100.00;100907.19;5046815;28;20099;-73
2022/10/14 02:19:06;;;;;;;170.60;60.92;;;;;;;10.87;100.00;100889.50;5019654;28;20056;-73
2022/10/14 02:21:42;;;;;;;164.60;60.30;;;;;;;10.81;100.00;100900.00;5038220;28;20033;-73
2022/10/14 02:24:27;;;;;;;152.27;59.75;;;;;;;10.78;100.00;100903.81;5040081;28;20041;-72
2022/10/14 02:26:55;;;;;;;164.52;59.28;;;;;;;10.75;100.00;100901.47;5037748;28;20078;-72
2022/10/14 02:29:22;;;;;;;201.88;64.15;;;;;;;10.73;100.00;100900.78;5039444;28;20449;-73
2022/10/14 02:31:50;;;;;;;185.48;63.25;;;;;;;10.82;100.00;100913.19;5030306;28;20040;-72
2022/10/14 02:34:21;;;;;;;179.82;60.72;;;;;;;10.85;100.00;100915.53;5052303;28;20068;-73
2022/10/14 02:36:48;;;;;;;218.30;72.75;;;;;;;10.87;100.00;100926.91;5052218;28;20501;-73
2022/10/14 02:39:20;;;;;;;160.40;60.00;;;;;;;10.88;100.00;100925.88;5035401;28;20430;-73
2022/10/14 02:41:45;;;;;;;200.10;66.20;;;;;;;10.86;100.00;100925.22;5020715;28;20576;-74
2022/10/14 02:44:11;;;;;;;211.23;64.90;;;;;;;10.85;100.00;100922.72;5051860;28;20040;-72
2022/10/14 02:46:38;;;;;;;167.90;63.53;;;;;;;10.87;100.00;100932.25;5019866;28;20056;-73
2022/10/14 02:49:07;;;;;;;167.18;61.25;;;;;;;10.92;100.00;100934.44;5038762;28;20017;-73
2022/10/14 02:51:32;;;;;;;163.70;57.97;;;;;;;10.94;100.00;100932.44;5020353;28;20044;-72
2022/10/14 02:53:57;;;;;;;177.40;63.77;;;;;;;10.92;100.00;100937.94;5021785;28;20024;-72
2022/10/14 02:56:25;;;;;;;192.35;63.60;;;;;;;10.93;100.00;100934.28;5046099;28;20048;-74
2022/10/14 02:58:50;;;;;;;176.60;62.40;;;;;;;10.91;100.00;100932.75;5038052;28;20055;-74
2022/10/14 03:01:15;;;;;;;171.10;59.63;;;;;;;10.90;100.00;100937.25;5035220;28;20024;-72
2022/10/14 03:03:42;;;;;;;178.15;56.17;;;;;;;10.91;100.00;100930.94;5035774;28;20425;-72
2022/10/14 03:06:07;;;;;;;175.30;58.37;;;;;;;10.96;100.00;100947.31;5019377;28;20041;-73
2022/10/14 03:08:33;;;;;;;157.88;58.28;;;;;;;10.99;100.00;100941.63;5034421;28;20083;-73
2022/10/14 03:11:00;;;;;;;158.32;58.80;;;;;;;10.99;100.00;100936.28;5020094;28;20041;-73
2022/10/14 03:13:26;;;;;;;219.10;60.20;;;;;;;10.98;100.00;100941.81;5038751;28;20021;-72
2022/10/14 03:15:51;;;;;;;162.60;58.00;;;;;;;10.95;100.00;100945.63;5053373;28;20036;-72
2022/10/14 03:18:18;;;;;;;;;;;;;;;10.98;100.00;100949.84;5051792;28;20043;-72
2022/10/14 03:20:46;;;;;;;160.65;56.63;;;;;;;10.95;100.00;100950.97;5036209;28;19963;-73
2022/10/14 03:23:16;;;;;;;156.65;57.17;;;;;;;10.98;100.00;100956.00;5034680;28;20508;-73
2022/10/14 03:25:44;;;;;;;151.93;54.75;;;;;;;11.01;100.00;100949.50;5018312;28;20025;-73
2022/10/14 03:28:16;;;;;;;183.30;59.75;;;;;;;11.00;100.00;100953.16;5034124;28;20027;-72
2022/10/14 03:30:48;;;;;;;167.48;58.67;;;;;;;11.04;100.00;100956.34;5036003;28;20030;-73
2022/10/14 03:33:21;;;;;;;147.13;52.80;;;;;;;11.02;100.00;100950.34;5050445;28;20112;-73
2022/10/14 03:35:51;;;;;;;128.35;50.38;;;;;;;11.03;100.00;100954.66;5036515;28;20840;-73
2022/10/14 03:38:21;;;;;;;180.82;56.65;;;;;;;11.03;100.00;100952.84;5033062;28;20424;-72
2022/10/14 03:40:48;;;;;;;166.63;57.95;;;;;;;11.04;100.00;100959.03;5037089;28;20479;-74
2022/10/14 03:43:14;;;;;;;184.00;58.80;;;;;;;11.06;100.00;100957.03;5034333;28;20148;-73
2022/10/14 03:45:52;;;;;;;149.05;54.17;;;;;;;11.06;100.00;100962.38;5036688;28;20207;-74
2022/10/14 03:48:20;;;;;;;183.77;61.15;;;;;;;11.05;100.00;100963.34;5054731;28;20778;-74
2022/10/14 03:50:46;;;;;;;151.65;57.80;;;;;;;11.08;100.00;100960.38;5019474;28;20028;-72
2022/10/14 03:53:12;;;;;;;139.02;53.55;;;;;;;11.09;100.00;100956.72;5051587;28;20474;-73
2022/10/14 03:55:37;;;;;;;145.10;51.80;;;;;;;11.08;100.00;100963.06;5057073;28;20029;-72
2022/10/14 03:58:04;;;;;;;128.95;49.47;;;;;;;11.06;100.00;100957.03;5035808;28;20040;-73
2022/10/14 04:00:31;;;;;;;135.95;49.85;;;;;;;11.08;100.00;100968.41;5049982;28;20060;-73
2022/10/14 04:03:21;;;;;;;195.25;60.70;;;;;;;11.03;100.00;100957.34;5024742;28;20032;-72
2022/10/14 04:05:46;;;;;;;177.80;59.60;;;;;;;11.03;100.00;100954.66;5053828;28;20048;-73
2022/10/14 04:08:16;;;;;;;149.55;54.03;;;;;;;11.08;100.00;100965.72;5054510;28;20067;-72
2022/10/14 04:10:53;;;;;;;178.75;59.88;;;;;;;11.07;100.00;100964.03;5040269;28;20215;-73
2022/10/14 04:13:19;;;;;;;154.02;56.67;;;;;;;11.06;100.00;100962.38;5040763;28;20047;-73
2022/10/14 04:15:44;;;;;;;172.75;59.38;;;;;;;11.05;100.00;100958.88;5039520;28;20568;-73
2022/10/14 04:18:15;;;;;;;161.18;58.65;;;;;;;11.09;100.00;100967.41;5054150;28;20485;-73
2022/10/14 04:20:42;;;;;;;164.75;58.45;;;;;;;11.06;100.00;100967.72;5039951;28;20037;-72
2022/10/14 04:23:09;;;;;;;172.63;59.38;;;;;;;11.09;100.00;100967.41;5039060;28;20044;-74
2022/10/14 04:25:38;;;;;;;171.90;57.50;;;;;;;11.08;100.00;100965.72;5038530;28;20037;-73
2022/10/14 04:28:04;;;;;;;159.48;58.72;;;;;;;11.10;100.00;100963.75;5038880;28;20052;-73
2022/10/14 04:30:42;;;;;;;160.98;59.38;;;;;;;11.14;100.00;100963.25;5023865;28;20437;-73
2022/10/14 04:33:13;;;;;;;157.35;58.80;;;;;;;11.11;100.00;100962.72;5026423;28;20028;-72
2022/10/14 04:35:39;;;;;;;170.43;57.17;;;;;;;11.11;100.00;100960.88;5022489;28;20041;-73
2022/10/14 04:38:08;;;;;;;152.02;54.22;;;;;;;11.09;100.00;100957.53;5023210;28;20028;-73
2022/10/14 04:40:36;;;;;;;154.75;56.55;;;;;;;11.10;100.00;100967.25;5036424;28;20068;-73
2022/10/14 04:43:02;;;;;;;157.20;55.92;;;;;;;11.10;100.00;100958.41;5037642;28;20489;-73
2022/10/14 04:45:34;;;;;;;166.65;59.17;;;;;;;11.13;100.00;100974.09;5021581;28;20040;-73
2022/10/14 04:48:02;;;;;;;168.43;60.00;;;;;;;11.13;100.00;100968.75;5023202;28;20025;-73
2022/10/14 04:50:27;;;;;;;166.60;57.40;;;;;;;11.13;100.00;100958.91;5061245;28;20551;-72
2022/10/14 04:53:11;;;;;;;176.15;62.72;;;;;;;11.12;100.00;100961.72;5059072;28;20070;-73
2022/10/14 04:55:48;;;;;;;164.23;58.13;;;;;;;11.14;100.00;100965.06;5023432;28;20033;-74
2022/10/14 04:58:15;;;;;;;172.68;60.28;;;;;;;11.15;100.00;100956.06;5037601;28;20268;-73
2022/10/14 05:00:42;;;;;;;170.23;60.35;;;;;;;11.15;100.00;100959.56;5023251;28;20052;-72
2022/10/14 05:03:21;;;;;;;172.35;61.38;;;;;;;11.16;100.00;100957.72;5052677;28;20028;-72
2022/10/14 05:05:46;;;;;;;188.63;63.47;;;;;;;11.19;100.00;100957.41;5041222;28;20120;-73
2022/10/14 05:08:12;;;;;;;168.83;62.63;;;;;;;11.15;100.00;100959.56;5030188;28;20024;-72
2022/10/14 05:10:40;;;;;;;195.88;65.15;;;;;;;11.14;100.00;100952.56;5059051;28;20279;-74
2022/10/14 05:13:10;;;;;;;181.90;62.10;;;;;;;11.13;100.00;100953.56;5030217;28;20021;-73
2022/10/14 05:15:46;;;;;;;172.50;63.88;;;;;;;11.15;100.00;100958.75;5030979;28;20036;-73
2022/10/14 05:18:14;;;;;;;185.00;64.13;;;;;;;11.17;100.00;100964.78;5023855;28;20102;-72
2022/10/14 05:20:50;;;;;;;180.40;63.38;;;;;;;11.12;100.00;100956.38;5048912;28;20024;-73
2022/10/14 05:23:17;;;;;;;154.68;59.72;;;;;;;11.10;100.00;100956.56;5049751;28;20050;-73
2022/10/14 05:25:43;;;;;;;181.27;62.72;;;;;;;11.16;100.00;100961.25;5032693;28;20044;-73
2022/10/14 05:28:09;;;;;;;164.35;59.83;;;;;;;11.17;100.00;100965.59;5033107;28;20025;-73
2022/10/14 05:30:35;;;;;;;188.02;62.40;;;;;;;11.15;100.00;100956.06;5032067;28;20449;-73
2022/10/14 05:33:02;;;;;;;166.75;59.97;;;;;;;11.15;100.00;100962.25;5038922;28;20036;-73
2022/10/14 05:35:28;;;;;;;169.63;62.17;;;;;;;11.14;100.00;100965.06;5053327;28;20029;-73
2022/10/14 05:37:58;;;;;;;172.23;61.03;;;;;;;11.16;100.00;100973.78;5048645;28;20037;-73
2022/10/14 05:40:23;;;;;;;173.57;61.55;;;;;;;11.13;100.00;100968.75;5033606;28;20065;-73
2022/10/14 05:42:50;;;;;;;194.95;62.90;;;;;;;11.11;100.00;100962.72;5028517;28;20037;-72
2022/10/14 05:45:18;;;;;;;175.60;62.63;;;;;;;11.10;100.00;100964.56;5065039;22;20060;-91
2022/10/14 05:47:49;;;;;;;171.27;60.53;;;;;;;11.12;100.00;100967.06;5045714;28;20033;-92
2022/10/14 05:50:17;;;;;;;188.68;62.53;;;;;;;11.12;100.00;100969.75;5020129;28;20538;-92
2022/10/14 05:52:44;;;;;;;183.90;62.42;;;;;;;11.06;100.00;100962.38;5046863;28;20044;-91
2022/10/14 05:55:16;;;;;;;159.55;59.13;;;;;;;11.12;100.00;100967.94;5050645;28;20033;-91
2022/10/14 05:57:43;;;;;;;170.65;59.55;;;;;;;11.09;100.00;100962.06;5029682;28;20102;-91
2022/10/14 06:00:10;;;;;;;176.57;60.13;;;;;;;11.10;100.00;100959.22;5030484;28;20163;-91
2022/10/14 06:02:42;;;;;;;173.20;59.65;;;;;;;11.11;100.00;100963.56;5037586;28;20041;-91
2022/10/14 06:05:08;;;;;;;178.10;59.95;;;;;;;11.07;100.00;100953.34;5032623;28;20028;-91
2022/10/14 06:07:35;;;;;;;169.83;58.07;;;;;;;11.11;100.00;100960.06;5039721;28;20025;-91
2022/10/14 06:10:00;;;;;;;172.23;59.45;;;;;;;11.13;100.00;100968.75;5028691;28;20507;-91
2022/10/14 06:12:25;;;;;;;171.40;57.90;;;;;;;11.14;100.00;100965.94;5016242;28;20030;-92
2022/10/14 06:14:51;;;;;;;153.18;56.30;;;;;;;11.15;100.00;100966.75;5037650;28;20032;-92
2022/10/14 06:17:17;;;;;;;153.77;55.03;;;;;;;11.17;100.00;100956.75;5021787;28;20485;-92
2022/10/14 06:19:43;;;;;;;171.05;57.42;;;;;;;11.13;100.00;100948.22;5045403;28;20124;-91
2022/10/14 06:22:09;;;;;;;184.97;59.47;;;;;;;11.18;100.00;100950.41;5019516;28;20816;-91
2022/10/14 06:24:34;;;;;;;180.57;58.00;;;;;;;11.19;100.00;100960.06;5035306;28;20041;-91
2022/10/14 06:27:00;;;;;;;172.60;58.67;;;;;;;11.19;100.00;100946.72;5053594;28;20039;-90
2022/10/14 06:29:30;;;;;;;175.00;61.03;;;;;;;11.21;100.00;100947.41;5045219;28;20325;-91
2022/10/14 06:31:55;;;;;;;177.88;56.20;;;;;;;11.17;100.00;100946.91;5034569;28;20048;-90
2022/10/14 06:34:22;;;;;;;153.90;54.43;;;;;;;11.22;100.00;100946.41;5017897;28;20032;-90
2022/10/14 06:37:28;;;;;;;143.57;52.88;;;;;;;11.27;100.00;100949.44;5038020;28;20024;-92
2022/10/14 06:39:54;;;;;;;147.70;55.70;;;;;;;11.24;100.00;100936.41;5041114;28;20116;-91
2022/10/14 06:42:19;;;;;;;172.93;57.70;;;;;;;11.31;100.00;100944.63;5056159;28;20059;-90
2022/10/14 06:44:44;;;;;;;180.93;59.10;;;;;;;11.22;100.00;100933.06;5045402;28;20058;-89
2022/10/14 06:47:10;;;;;;;157.07;55.87;;;;;;;11.28;100.00;100936.91;5041537;28;20024;-90
2022/10/14 06:49:35;;;;;;;150.93;53.60;;;;;;;11.26;100.00;100939.75;5036209;28;20033;-89
2022/10/14 06:52:00;;;;;;;155.50;53.83;;;;;;;11.24;100.00;100941.75;5048661;28;20108;-91
2022/10/14 06:54:26;;;;;;;148.03;57.33;;;;;;;11.23;100.00;100937.38;5029682;28;20028;-91
2022/10/14 06:56:51;;;;;;;158.93;54.67;;;;;;;11.32;100.00;100932.91;5022828;28;20062;-91
2022/10/14 06:59:16;;;;;;;163.70;55.23;;;;;;;11.31;100.00;100933.91;5036017;28;20037;-91
2022/10/14 07:01:42;;;;;;;143.97;55.07;;;;;;;11.32;100.00;100925.72;5035766;28;20500;-91
2022/10/14 07:04:07;;;;;;;167.53;55.87;;;;;;;11.33;100.00;100932.75;5050191;28;20037;-90
2022/10/14 07:06:35;;;;;;;166.63;56.90;;;;;;;11.28;100.00;100924.38;5026971;28;20093;-88
2022/10/14 07:09:02;;;;;;;168.70;58.38;;;;;;;11.23;100.00;100929.38;5009576;28;20152;-90
2022/10/14 07:11:27;;;;;;;142.68;55.00;;;;;;;11.31;100.00;100918.72;5036432;28;20096;-90
2022/10/14 07:13:54;;;;;;;162.13;56.23;;;;;;;11.31;100.00;100921.38;5045565;28;20121;-90
2022/10/14 07:16:19;;;;;;;152.65;58.90;;;;;;;11.39;100.00;100932.09;5021576;28;20029;-90
2022/10/14 07:18:45;;;;;;;141.07;54.40;;;;;;;11.38;100.00;100934.94;5017671;28;20041;-90
2022/10/14 07:21:42;;;;;;;160.83;57.17;;;;;;;11.35;100.00;100929.91;5022725;28;20028;-89
2022/10/14 07:24:08;;;;;;;157.48;57.00;;;;;;;11.36;100.00;100931.59;4934701;29;20179;-90
2022/10/14 07:26:33;;;;;;;147.30;56.75;;;;;;;11.39;100.00;100920.56;4950650;28;20037;-91
2022/10/14 07:28:59;;;;;;;162.13;59.03;;;;;;;11.44;100.00;100933.44;4938385;28;20114;-90
2022/10/14 07:31:25;;;;;;;159.53;57.03;;;;;;;11.45;100.00;100935.09;4950579;28;20070;-91
2022/10/14 07:33:50;;;;;;;161.77;57.88;;;;;;;11.45;100.00;100925.25;4950355;28;20062;-90
2022/10/14 07:36:17;;;;;;;149.23;56.80;;;;;;;11.48;100.00;100940.13;4931587;28;20566;-91
2022/10/14 07:38:43;;;;;;;149.07;54.75;;;;;;;11.53;100.00;100933.28;4937186;28;20422;-91
2022/10/14 07:41:17;;;;;;;146.05;53.90;;;;;;;11.60;100.00;100933.47;4940310;29;20089;-90
2022/10/14 07:43:47;;;;;;;138.63;51.55;;;;;;;11.60;100.00;100931.63;4930481;28;20063;-91
2022/10/14 07:46:15;;;;;;;145.93;54.85;;;;;;;11.61;100.00;100924.44;4933714;29;20637;-91
2022/10/14 07:48:42;;;;;;;153.35;56.42;;;;;;;11.59;100.00;100915.75;4928372;28;20084;-91
2022/10/14 07:51:08;;;;;;;154.23;53.40;;;;;;;11.65;100.00;100908.91;4929727;28;20041;-91
2022/10/14 07:53:36;;;;;;;148.40;53.05;;;;;;;11.62;100.00;100896.72;4923990;28;20031;-91
2022/10/14 07:56:02;;;;;;;150.65;56.20;;;;;;;11.73;100.00;100906.22;4926571;29;20039;-90
2022/10/14 07:58:30;;;;;;;141.38;55.53;;;;;;;11.69;100.00;100894.22;4917875;29;20105;-90
2022/10/14 08:00:56;;;;;;;140.65;58.95;;;;;;;11.79;100.00;100901.06;4982162;28;20132;-90
2022/10/14 08:03:23;;;;;;;140.95;57.78;;;;;;;11.81;100.00;100887.53;5033086;28;20033;-90
2022/10/14 08:05:50;;;;;;;152.20;60.88;;;;;;;11.73;100.00;100884.81;5015487;28;20070;-90
2022/10/14 08:08:17;;;;;;;135.55;55.10;;;;;;;11.70;100.00;100874.47;5015521;28;20557;-90
2022/10/14 08:10:43;;;;;;;146.68;58.28;;;;;;;11.76;100.00;100871.16;5015807;28;20513;-90
2022/10/14 08:13:09;;;;;;;139.90;56.67;;;;;;;11.82;100.00;100865.97;5045674;28;20408;-91
2022/10/14 08:15:39;;;;;;;139.25;55.35;;;;;;;11.78;100.00;100861.94;5048602;28;20054;-91
2022/10/14 08:18:05;;;;;;;138.77;54.75;;;;;;;11.79;100.00;100857.44;5026551;28;20040;-91
2022/10/14 08:20:31;;;;;;;136.93;55.33;;;;;;;11.80;100.00;100851.09;5032645;28;20032;-90
2022/10/14 08:22:57;;;;;;;139.95;56.85;;;;;;;11.75;100.00;100840.03;5024633;28;20033;-92
2022/10/14 08:25:22;;;;;;;145.00;56.60;;;;;;;11.79;100.00;100841.38;5031919;28;20036;-91
2022/10/14 08:27:59;;;;;;;149.80;57.60;;;;;;;11.78;100.00;100840.56;5032176;28;20050;-91
2022/10/14 08:30:25;;;;;;;142.23;54.55;;;;;;;11.71;100.00;100833.38;5032456;28;20068;-92
2022/10/14 08:35:56;;;;;;;122.80;51.17;;;;;;;11.89;100.00;100841.22;5043570;28;20039;-90
2022/10/14 08:38:24;;;;;;;123.03;55.05;;;;;;;11.83;100.00;100822.16;5048690;28;20405;-90
2022/10/14 08:41:06;;;;;;;114.25;51.80;;;;;;;11.90;100.00;100822.34;5015844;28;20037;-90
2022/10/14 08:43:38;;;;;;;126.28;53.47;;;;;;;11.87;100.00;100811.09;5015843;28;20118;-91
2022/10/14 08:46:17;;;;;;;123.90;53.33;;;;;;;11.80;100.00;100809.13;5025577;28;20033;-90
2022/10/14 08:48:45;;;;;;;121.47;49.42;;;;;;;11.81;100.00;100802.75;5030484;28;20501;-91
2022/10/14 08:51:14;;;;;;;103.88;45.67;;;;;;;11.83;100.00;100798.06;5029333;28;20016;-91
2022/10/14 08:53:52;;;;;;;109.38;49.08;;;;;;;11.76;100.00;100786.38;5038146;28;20044;-90
2022/10/14 08:56:19;;;;;;;104.55;46.67;;;;;;;11.82;100.00;100793.75;5030326;28;20490;-90
2022/10/14 08:58:48;;;;;;;107.72;46.95;;;;;;;11.68;100.00;100775.69;5039189;28;20043;-90
2022/10/14 09:01:31;;;;;;;122.15;48.17;;;;;;;11.65;100.00;100776.03;5024894;28;20188;-91
2022/10/14 09:04:01;;;;;;;108.80;44.20;;;;;;;11.78;100.00;100784.38;5026298;28;20033;-91
2022/10/14 09:06:30;;;;;;;117.80;48.00;;;;;;;11.84;100.00;100780.19;5055048;28;20075;-90
2022/10/14 09:09:37;;;;;;;106.32;43.47;;;;;;;11.78;100.00;100776.34;5054464;28;20040;-91
2022/10/14 09:12:06;;;;;;;99.90;40.20;;;;;;;11.77;100.00;100768.50;5029338;28;20029;-92
2022/10/14 09:14:43;;;;;;;103.47;41.53;;;;;;;11.82;100.00;100772.34;5048001;28;20037;-90
2022/10/14 09:17:19;;;;;;;103.38;40.85;;;;;;;11.75;100.00;100765.16;5037040;28;20092;-91
2022/10/14 09:19:50;;;;;;;95.68;39.03;;;;;;;11.73;100.00;100757.31;5039343;28;20229;-91
2022/10/14 09:22:15;;;;;;;85.60;37.80;;;;;;;11.84;100.00;100762.28;5021441;28;20049;-92
2022/10/14 09:24:45;;;;;;;92.73;39.33;;;;;;;11.79;100.00;100756.59;5041876;28;20025;-91
2022/10/14 09:27:21;;;;;;;91.82;39.42;;;;;;;11.64;100.00;100736.94;5027598;28;20048;-92
2022/10/14 09:29:49;;;;;;;128.40;42.88;;;;;;;11.79;100.00;100751.25;5019319;28;20037;-91
2022/10/14 09:32:26;;;;;;;105.57;37.30;;;;;;;11.93;100.00;100754.28;5018981;28;20555;-92
2022/10/14 09:34:52;;;;;;;102.05;42.55;;;;;;;11.93;100.00;100751.59;5027499;28;20075;-91
2022/10/14 09:37:18;;;;;;;96.88;40.88;;;;;;;12.14;100.00;100767.94;5018600;28;20056;-92
2022/10/14 09:39:44;;;;;;;82.93;36.35;;;;;;;12.13;100.00;100752.91;5038189;28;20515;-92
2022/10/14 09:42:21;;;;;;;;;;;;;;;12.17;100.00;100748.84;5054385;28;20028;-92
2022/10/14 09:45:10;;;;;;;88.38;36.13;;;;;;;12.14;100.00;100738.50;5018017;28;20354;-93
2022/10/14 09:47:45;;;;;;;91.75;36.38;;;;;;;12.09;100.00;100719.44;5025168;28;20474;-91
2022/10/14 09:50:21;;;;;;;106.63;38.35;;;;;;;12.28;100.00;100728.91;5024642;28;20116;-92
2022/10/14 09:53:17;;;;;;;115.05;42.13;;;;;;;12.41;100.00;100728.38;5021944;28;20037;-91
2022/10/14 09:55:56;;;;;;;81.95;33.97;;;;;;;12.65;100.00;100725.53;5031320;28;20448;-92
2022/10/14 09:58:30;;;;;;;104.68;38.47;;;;;;;12.74;100.00;100717.47;5026632;28;20039;-92
2022/10/14 10:00:58;;;;;;;94.78;36.08;;;;;;;12.78;100.00;100710.72;5024618;28;20056;-93
2022/10/14 10:03:38;;;;;;;73.13;33.33;;;;;;;12.94;100.00;100699.06;5029399;28;20020;-91
2022/10/14 10:06:09;;;;;;;77.93;33.88;;;;;;;12.92;100.00;100691.19;5014521;28;20502;-92
2022/10/14 10:08:40;;;;;;;69.82;29.90;;;;;;;12.91;100.00;100673.47;5032735;28;20032;-92
2022/10/14 10:11:12;;;;;;;69.15;29.95;;;;;;;13.00;100.00;100667.03;5038295;28;20045;-90
2022/10/14 10:13:43;;;;;;;73.70;32.92;;;;;;;12.87;100.00;100661.41;5037673;28;20032;-92
2022/10/14 10:16:36;;;;;;;78.07;33.53;;;;;;;12.90;100.00;100653.03;5033712;28;20029;-91
2022/10/14 10:19:35;;;;;;;69.97;35.55;;;;;;;12.79;100.00;100661.50;5034487;28;20504;-92
2022/10/14 10:22:27;;;;;;;70.55;32.08;;;;;;;12.99;100.00;100657.28;5030177;28;20592;-89
2022/10/14 10:25:02;;;;;;;68.82;32.33;;;;;;;13.21;100.00;100655.63;5036550;28;20056;-92
2022/10/14 10:27:34;;;;;;;63.80;30.30;;;;;;;13.65;100.00;100657.53;5036858;28;20504;-92
2022/10/14 10:30:13;;;;;;;56.47;25.52;;;;;;;14.85;100.00;100674.28;5036878;28;20033;-90
2022/10/14 10:32:47;;;;;;;50.10;23.83;;;;;;;14.62;100.00;100647.59;5036352;28;20043;-91
2022/10/14 10:35:19;;;;;;;52.80;25.42;;;;;;;14.50;100.00;100628.41;5044879;28;20847;-91
2022/10/14 10:38:10;;;;;;;42.80;22.38;;;;;;;14.95;100.00;100631.75;5041702;28;20054;-91
2022/10/14 10:40:46;;;;;;;36.00;19.60;;;;;;;15.74;100.00;100609.16;5017286;28;20044;-91
2022/10/14 10:43:37;;;;;;;42.25;22.83;;;;;;;15.33;100.00;100566.88;5046094;28;20038;-92
2022/10/14 10:46:02;;;;;;;38.07;21.57;;;;;;;14.93;100.00;100555.84;5020841;28;20025;-90
2022/10/14 10:48:41;;;;;;;40.77;22.03;;;;;;;14.26;100.00;100544.53;5030254;28;20060;-91
2022/10/14 10:51:11;;;;;;;44.38;22.60;;;;;;;14.24;100.00;100575.28;5036815;28;20057;-92
2022/10/14 10:54:14;;;;;;;46.70;23.50;;;;;;;13.99;100.00;100591.72;5011954;28;20528;-90
2022/10/14 10:56:42;;;;;;;50.78;24.85;;;;;;;13.79;100.00;100604.03;5042124;28;20525;-90
2022/10/14 10:59:29;;;;;;;50.15;26.85;;;;;;;13.35;100.00;100612.97;5021365;28;20020;-91
2022/10/14 11:01:58;;;;;;;50.45;26.35;;;;;;;13.49;100.00;100647.81;5016496;28;20029;-91
2022/10/14 11:04:51;;;;;;;50.58;25.55;;;;;;;13.40;100.00;100654.28;5016170;28;20040;-90
2022/10/14 11:13:41;;;;;;;58.40;27.38;;;;;;;13.26;100.00;100681.88;5055638;28;20021;-91
2022/10/14 11:16:33;;;;;;;60.45;27.98;;;;;;;13.29;100.00;100678.84;5038902;28;20493;-92
2022/10/14 11:19:13;;;;;;;55.03;27.38;;;;;;;13.10;100.00;100686.34;5024228;28;20116;-91
2022/10/14 11:21:47;;;;;;;51.28;26.63;;;;;;;13.20;100.00;100696.81;5032093;28;20029;-92
2022/10/14 11:24:17;;;;;;;61.22;29.20;;;;;;;13.22;100.00;100704.69;5015724;28;20128;-91
2022/10/14 11:26:55;;;;;;;61.22;27.45;;;;;;;13.32;100.00;100705.28;5015286;28;20508;-91